sensor_id;sensor_type;location;lat;lon;timestamp;P1;durP1;ratioP1;P2;durP2;ratioP2
22603;SDS011;11469;49.024;8.246;2024-01-16T00:00:22;19.38;;;8.15;;
22603;SDS011;11469;49.024;8.246;2024-01-16T00:02:47;24.67;;;8.90;;
22603;SDS011;11469;49.024;8.246;2024-01-16T00:05:13;26.70;;;9.50;;
22603;SDS011;11469;49.024;8.246;2024-01-16T00:07:39;22.35;;;8.52;;
22603;SDS011;11469;49.024;8.246;2024-01-16T00:10:07;22.38;;;8.55;;
22603;SDS011;11469;49.024;8.246;2024-01-16T00:12:33;17.80;;;8.05;;
22603;SDS011;11469;49.024;8.246;2024-01-16T00:14:58;22.08;;;9.15;;
22603;SDS011;11469;49.024;8.246;2024-01-16T00:17:24;16.23;;;7.95;;
22603;SDS011;11469;49.024;8.246;2024-01-16T00:19:49;20.02;;;8.43;;
22603;SDS011;11469;49.024;8.246;2024-01-16T00:22:15;24.27;;;9.38;;
22603;SDS011;11469;49.024;8.246;2024-01-16T00:24:40;21.98;;;8.68;;
22603;SDS011;11469;49.024;8.246;2024-01-16T00:27:05;21.55;;;8.20;;
22603;SDS011;11469;49.024;8.246;2024-01-16T00:29:31;19.48;;;8.15;;
22603;SDS011;11469;49.024;8.246;2024-01-16T00:31:56;25.77;;;8.57;;
22603;SDS011;11469;49.024;8.246;2024-01-16T00:34:22;23.05;;;8.45;;
22603;SDS011;11469;49.024;8.246;2024-01-16T00:36:47;15.45;;;7.68;;
22603;SDS011;11469;49.024;8.246;2024-01-16T00:39:13;18.25;;;7.25;;
22603;SDS011;11469;49.024;8.246;2024-01-16T00:41:38;19.30;;;8.13;;
22603;SDS011;11469;49.024;8.246;2024-01-16T00:44:04;18.40;;;8.00;;
22603;SDS011;11469;49.024;8.246;2024-01-16T00:46:30;20.00;;;8.25;;
22603;SDS011;11469;49.024;8.246;2024-01-16T00:48:55;17.80;;;7.70;;
22603;SDS011;11469;49.024;8.246;2024-01-16T00:51:20;19.90;;;8.07;;
22603;SDS011;11469;49.024;8.246;2024-01-16T00:53:46;17.83;;;7.88;;
22603;SDS011;11469;49.024;8.246;2024-01-16T00:56:12;17.83;;;8.75;;
22603;SDS011;11469;49.024;8.246;2024-01-16T00:58:40;19.30;;;8.07;;
22603;SDS011;11469;49.024;8.246;2024-01-16T01:01:05;21.80;;;8.65;;
22603;SDS011;11469;49.024;8.246;2024-01-16T01:03:31;16.25;;;7.72;;
22603;SDS011;11469;49.024;8.246;2024-01-16T01:05:56;15.52;;;7.47;;
22603;SDS011;11469;49.024;8.246;2024-01-16T01:08:22;16.52;;;7.53;;
22603;SDS011;11469;49.024;8.246;2024-01-16T01:10:47;15.57;;;7.38;;
22603;SDS011;11469;49.024;8.246;2024-01-16T01:13:13;16.52;;;7.78;;
22603;SDS011;11469;49.024;8.246;2024-01-16T01:15:38;20.67;;;7.70;;
22603;SDS011;11469;49.024;8.246;2024-01-16T01:18:04;20.35;;;7.88;;
22603;SDS011;11469;49.024;8.246;2024-01-16T01:20:31;18.73;;;7.82;;
22603;SDS011;11469;49.024;8.246;2024-01-16T01:22:56;22.05;;;8.00;;
22603;SDS011;11469;49.024;8.246;2024-01-16T01:25:22;20.13;;;8.35;;
22603;SDS011;11469;49.024;8.246;2024-01-16T01:27:47;17.23;;;8.57;;
22603;SDS011;11469;49.024;8.246;2024-01-16T01:30:12;24.67;;;8.07;;
22603;SDS011;11469;49.024;8.246;2024-01-16T01:32:38;23.13;;;7.97;;
22603;SDS011;11469;49.024;8.246;2024-01-16T01:35:04;22.38;;;8.20;;
22603;SDS011;11469;49.024;8.246;2024-01-16T01:37:31;23.40;;;8.60;;
22603;SDS011;11469;49.024;8.246;2024-01-16T01:39:56;17.88;;;8.38;;
22603;SDS011;11469;49.024;8.246;2024-01-16T01:42:22;20.63;;;8.38;;
22603;SDS011;11469;49.024;8.246;2024-01-16T01:44:48;22.77;;;8.82;;
22603;SDS011;11469;49.024;8.246;2024-01-16T01:47:13;16.83;;;7.88;;
22603;SDS011;11469;49.024;8.246;2024-01-16T01:49:39;20.83;;;8.80;;
22603;SDS011;11469;49.024;8.246;2024-01-16T01:52:06;18.60;;;8.20;;
22603;SDS011;11469;49.024;8.246;2024-01-16T01:54:31;23.73;;;8.70;;
22603;SDS011;11469;49.024;8.246;2024-01-16T01:57:01;20.95;;;7.82;;
22603;SDS011;11469;49.024;8.246;2024-01-16T01:59:27;16.77;;;8.15;;
22603;SDS011;11469;49.024;8.246;2024-01-16T02:01:54;18.17;;;8.27;;
22603;SDS011;11469;49.024;8.246;2024-01-16T02:04:20;14.82;;;7.90;;
22603;SDS011;11469;49.024;8.246;2024-01-16T02:06:47;20.85;;;9.00;;
22603;SDS011;11469;49.024;8.246;2024-01-16T02:09:13;17.67;;;8.23;;
22603;SDS011;11469;49.024;8.246;2024-01-16T02:11:39;19.45;;;8.52;;
22603;SDS011;11469;49.024;8.246;2024-01-16T02:14:05;19.45;;;8.30;;
22603;SDS011;11469;49.024;8.246;2024-01-16T02:16:35;19.77;;;8.85;;
22603;SDS011;11469;49.024;8.246;2024-01-16T02:19:02;19.92;;;8.23;;
22603;SDS011;11469;49.024;8.246;2024-01-16T02:21:28;19.70;;;7.90;;
22603;SDS011;11469;49.024;8.246;2024-01-16T02:23:57;18.67;;;8.18;;
22603;SDS011;11469;49.024;8.246;2024-01-16T02:26:23;15.23;;;7.80;;
22603;SDS011;11469;49.024;8.246;2024-01-16T02:28:48;17.10;;;7.55;;
22603;SDS011;11469;49.024;8.246;2024-01-16T02:31:14;24.13;;;8.70;;
22603;SDS011;11469;49.024;8.246;2024-01-16T02:33:39;18.05;;;8.10;;
22603;SDS011;11469;49.024;8.246;2024-01-16T02:36:04;17.83;;;7.68;;
22603;SDS011;11469;49.024;8.246;2024-01-16T02:38:30;22.73;;;7.70;;
22603;SDS011;11469;49.024;8.246;2024-01-16T02:40:55;17.58;;;8.38;;
22603;SDS011;11469;49.024;8.246;2024-01-16T02:43:21;18.27;;;8.07;;
22603;SDS011;11469;49.024;8.246;2024-01-16T02:45:46;17.27;;;8.27;;
22603;SDS011;11469;49.024;8.246;2024-01-16T02:48:12;18.98;;;8.00;;
22603;SDS011;11469;49.024;8.246;2024-01-16T02:50:38;18.90;;;8.13;;
22603;SDS011;11469;49.024;8.246;2024-01-16T02:53:03;19.80;;;8.73;;
22603;SDS011;11469;49.024;8.246;2024-01-16T02:55:29;21.02;;;9.15;;
22603;SDS011;11469;49.024;8.246;2024-01-16T02:57:54;17.67;;;8.27;;
22603;SDS011;11469;49.024;8.246;2024-01-16T03:00:20;22.48;;;8.52;;
22603;SDS011;11469;49.024;8.246;2024-01-16T03:02:45;18.27;;;8.02;;
22603;SDS011;11469;49.024;8.246;2024-01-16T03:05:10;23.65;;;7.90;;
22603;SDS011;11469;49.024;8.246;2024-01-16T03:07:36;20.20;;;7.93;;
22603;SDS011;11469;49.024;8.246;2024-01-16T03:10:02;18.33;;;8.18;;
22603;SDS011;11469;49.024;8.246;2024-01-16T03:12:27;19.75;;;8.18;;
22603;SDS011;11469;49.024;8.246;2024-01-16T03:14:53;20.45;;;7.78;;
22603;SDS011;11469;49.024;8.246;2024-01-16T03:17:19;19.17;;;7.63;;
22603;SDS011;11469;49.024;8.246;2024-01-16T03:19:44;22.85;;;8.35;;
22603;SDS011;11469;49.024;8.246;2024-01-16T03:22:10;22.42;;;7.90;;
22603;SDS011;11469;49.024;8.246;2024-01-16T03:24:35;16.48;;;7.70;;
22603;SDS011;11469;49.024;8.246;2024-01-16T03:27:01;18.73;;;8.13;;
22603;SDS011;11469;49.024;8.246;2024-01-16T03:29:26;19.02;;;8.43;;
22603;SDS011;11469;49.024;8.246;2024-01-16T03:31:52;18.80;;;8.18;;
22603;SDS011;11469;49.024;8.246;2024-01-16T03:34:18;16.80;;;8.25;;
22603;SDS011;11469;49.024;8.246;2024-01-16T03:36:43;20.20;;;8.45;;
22603;SDS011;11469;49.024;8.246;2024-01-16T03:39:09;23.25;;;8.43;;
22603;SDS011;11469;49.024;8.246;2024-01-16T03:41:34;18.40;;;8.40;;
22603;SDS011;11469;49.024;8.246;2024-01-16T03:43:59;14.93;;;7.68;;
22603;SDS011;11469;49.024;8.246;2024-01-16T03:46:25;21.98;;;9.15;;
22603;SDS011;11469;49.024;8.246;2024-01-16T03:48:51;23.63;;;8.27;;
22603;SDS011;11469;49.024;8.246;2024-01-16T03:51:16;18.75;;;8.90;;
22603;SDS011;11469;49.024;8.246;2024-01-16T03:53:44;21.40;;;8.85;;
22603;SDS011;11469;49.024;8.246;2024-01-16T03:56:10;17.65;;;8.45;;
22603;SDS011;11469;49.024;8.246;2024-01-16T03:58:35;24.05;;;8.25;;
22603;SDS011;11469;49.024;8.246;2024-01-16T04:01:01;20.00;;;8.85;;
22603;SDS011;11469;49.024;8.246;2024-01-16T04:03:26;22.60;;;9.18;;
22603;SDS011;11469;49.024;8.246;2024-01-16T04:05:52;22.17;;;8.30;;
22603;SDS011;11469;49.024;8.246;2024-01-16T04:08:17;20.15;;;9.07;;
22603;SDS011;11469;49.024;8.246;2024-01-16T04:10:42;19.98;;;9.15;;
22603;SDS011;11469;49.024;8.246;2024-01-16T04:13:08;19.85;;;9.27;;
22603;SDS011;11469;49.024;8.246;2024-01-16T04:15:33;20.60;;;8.43;;
22603;SDS011;11469;49.024;8.246;2024-01-16T04:17:59;18.98;;;8.35;;
22603;SDS011;11469;49.024;8.246;2024-01-16T04:20:24;32.08;;;9.50;;
22603;SDS011;11469;49.024;8.246;2024-01-16T04:22:50;19.73;;;8.65;;
22603;SDS011;11469;49.024;8.246;2024-01-16T04:25:16;19.80;;;8.27;;
22603;SDS011;11469;49.024;8.246;2024-01-16T04:27:41;22.52;;;9.80;;
22603;SDS011;11469;49.024;8.246;2024-01-16T04:30:07;20.73;;;9.52;;
22603;SDS011;11469;49.024;8.246;2024-01-16T04:32:33;23.48;;;9.52;;
22603;SDS011;11469;49.024;8.246;2024-01-16T04:34:58;22.58;;;9.88;;
22603;SDS011;11469;49.024;8.246;2024-01-16T04:37:24;19.02;;;9.10;;
22603;SDS011;11469;49.024;8.246;2024-01-16T04:39:49;25.20;;;9.20;;
22603;SDS011;11469;49.024;8.246;2024-01-16T04:42:14;24.23;;;9.48;;
22603;SDS011;11469;49.024;8.246;2024-01-16T04:44:42;20.48;;;9.65;;
22603;SDS011;11469;49.024;8.246;2024-01-16T04:47:08;24.88;;;10.32;;
22603;SDS011;11469;49.024;8.246;2024-01-16T04:49:33;24.77;;;10.98;;
22603;SDS011;11469;49.024;8.246;2024-01-16T04:51:59;25.45;;;9.75;;
22603;SDS011;11469;49.024;8.246;2024-01-16T04:54:24;21.75;;;11.10;;
22603;SDS011;11469;49.024;8.246;2024-01-16T04:56:49;19.20;;;9.50;;
22603;SDS011;11469;49.024;8.246;2024-01-16T04:59:15;26.38;;;10.77;;
22603;SDS011;11469;49.024;8.246;2024-01-16T05:01:40;22.92;;;10.18;;
22603;SDS011;11469;49.024;8.246;2024-01-16T05:04:05;22.67;;;10.15;;
22603;SDS011;11469;49.024;8.246;2024-01-16T05:06:33;22.08;;;10.05;;
22603;SDS011;11469;49.024;8.246;2024-01-16T05:08:58;24.35;;;10.07;;
22603;SDS011;11469;49.024;8.246;2024-01-16T05:11:24;20.80;;;9.43;;
22603;SDS011;11469;49.024;8.246;2024-01-16T05:13:49;23.02;;;10.40;;
22603;SDS011;11469;49.024;8.246;2024-01-16T05:16:14;26.50;;;10.98;;
22603;SDS011;11469;49.024;8.246;2024-01-16T05:18:43;23.92;;;10.05;;
22603;SDS011;11469;49.024;8.246;2024-01-16T05:21:08;30.80;;;10.93;;
22603;SDS011;11469;49.024;8.246;2024-01-16T05:23:34;37.67;;;10.40;;
22603;SDS011;11469;49.024;8.246;2024-01-16T05:25:59;20.17;;;10.70;;
22603;SDS011;11469;49.024;8.246;2024-01-16T05:28:24;27.00;;;10.98;;
22603;SDS011;11469;49.024;8.246;2024-01-16T05:30:50;23.67;;;10.88;;
22603;SDS011;11469;49.024;8.246;2024-01-16T05:33:15;25.85;;;10.48;;
22603;SDS011;11469;49.024;8.246;2024-01-16T05:35:41;24.70;;;10.43;;
22603;SDS011;11469;49.024;8.246;2024-01-16T05:38:06;23.50;;;11.65;;
22603;SDS011;11469;49.024;8.246;2024-01-16T05:40:32;32.20;;;10.18;;
22603;SDS011;11469;49.024;8.246;2024-01-16T05:42:57;23.23;;;10.30;;
22603;SDS011;11469;49.024;8.246;2024-01-16T05:45:22;27.08;;;10.93;;
22603;SDS011;11469;49.024;8.246;2024-01-16T05:47:48;24.60;;;10.88;;
22603;SDS011;11469;49.024;8.246;2024-01-16T05:50:13;25.35;;;9.75;;
22603;SDS011;11469;49.024;8.246;2024-01-16T05:52:41;22.27;;;10.02;;
22603;SDS011;11469;49.024;8.246;2024-01-16T05:55:07;26.83;;;10.48;;
22603;SDS011;11469;49.024;8.246;2024-01-16T05:57:32;21.27;;;9.80;;
22603;SDS011;11469;49.024;8.246;2024-01-16T05:59:58;23.23;;;10.65;;
22603;SDS011;11469;49.024;8.246;2024-01-16T06:02:24;31.58;;;13.32;;
22603;SDS011;11469;49.024;8.246;2024-01-16T06:04:49;27.80;;;11.88;;
22603;SDS011;11469;49.024;8.246;2024-01-16T06:07:16;24.45;;;12.07;;
22603;SDS011;11469;49.024;8.246;2024-01-16T06:09:41;25.77;;;11.57;;
22603;SDS011;11469;49.024;8.246;2024-01-16T06:12:07;27.77;;;11.18;;
22603;SDS011;11469;49.024;8.246;2024-01-16T06:14:33;24.02;;;10.65;;
22603;SDS011;11469;49.024;8.246;2024-01-16T06:16:59;23.05;;;10.05;;
22603;SDS011;11469;49.024;8.246;2024-01-16T06:19:25;28.30;;;11.18;;
22603;SDS011;11469;49.024;8.246;2024-01-16T06:21:50;29.95;;;13.27;;
22603;SDS011;11469;49.024;8.246;2024-01-16T06:24:15;30.25;;;12.00;;
22603;SDS011;11469;49.024;8.246;2024-01-16T06:26:41;28.40;;;13.00;;
22603;SDS011;11469;49.024;8.246;2024-01-16T06:29:07;30.02;;;14.30;;
22603;SDS011;11469;49.024;8.246;2024-01-16T06:31:33;28.85;;;13.60;;
22603;SDS011;11469;49.024;8.246;2024-01-16T06:33:58;32.40;;;13.27;;
22603;SDS011;11469;49.024;8.246;2024-01-16T06:36:23;28.48;;;12.15;;
22603;SDS011;11469;49.024;8.246;2024-01-16T06:38:49;33.05;;;14.18;;
22603;SDS011;11469;49.024;8.246;2024-01-16T06:41:14;28.80;;;11.70;;
22603;SDS011;11469;49.024;8.246;2024-01-16T06:43:39;24.42;;;12.35;;
22603;SDS011;11469;49.024;8.246;2024-01-16T06:46:05;32.88;;;13.02;;
22603;SDS011;11469;49.024;8.246;2024-01-16T06:48:31;27.63;;;12.63;;
22603;SDS011;11469;49.024;8.246;2024-01-16T06:50:56;30.58;;;12.57;;
22603;SDS011;11469;49.024;8.246;2024-01-16T06:53:21;27.15;;;12.23;;
22603;SDS011;11469;49.024;8.246;2024-01-16T06:55:47;27.30;;;12.38;;
22603;SDS011;11469;49.024;8.246;2024-01-16T06:58:13;36.67;;;13.48;;
22603;SDS011;11469;49.024;8.246;2024-01-16T07:00:39;36.38;;;14.38;;
22603;SDS011;11469;49.024;8.246;2024-01-16T07:03:06;30.90;;;13.73;;
22603;SDS011;11469;49.024;8.246;2024-01-16T07:05:32;27.38;;;12.85;;
22603;SDS011;11469;49.024;8.246;2024-01-16T07:07:57;27.08;;;12.93;;
22603;SDS011;11469;49.024;8.246;2024-01-16T07:10:23;29.48;;;12.45;;
22603;SDS011;11469;49.024;8.246;2024-01-16T07:12:49;33.67;;;14.50;;
22603;SDS011;11469;49.024;8.246;2024-01-16T07:15:16;31.70;;;12.77;;
22603;SDS011;11469;49.024;8.246;2024-01-16T07:17:42;28.40;;;11.90;;
22603;SDS011;11469;49.024;8.246;2024-01-16T07:20:08;34.85;;;13.93;;
22603;SDS011;11469;49.024;8.246;2024-01-16T07:22:33;32.00;;;14.35;;
22603;SDS011;11469;49.024;8.246;2024-01-16T07:24:59;32.95;;;13.45;;
22603;SDS011;11469;49.024;8.246;2024-01-16T07:27:25;30.75;;;13.85;;
22603;SDS011;11469;49.024;8.246;2024-01-16T07:29:50;37.63;;;12.75;;
22603;SDS011;11469;49.024;8.246;2024-01-16T07:32:16;32.50;;;13.13;;
22603;SDS011;11469;49.024;8.246;2024-01-16T07:34:41;32.78;;;13.15;;
22603;SDS011;11469;49.024;8.246;2024-01-16T07:37:06;33.63;;;12.68;;
22603;SDS011;11469;49.024;8.246;2024-01-16T07:39:32;32.13;;;14.40;;
22603;SDS011;11469;49.024;8.246;2024-01-16T07:41:57;33.70;;;14.57;;
22603;SDS011;11469;49.024;8.246;2024-01-16T07:44:23;34.83;;;14.32;;
22603;SDS011;11469;49.024;8.246;2024-01-16T07:46:48;31.13;;;13.40;;
22603;SDS011;11469;49.024;8.246;2024-01-16T07:49:14;33.90;;;13.80;;
22603;SDS011;11469;49.024;8.246;2024-01-16T07:51:41;30.60;;;12.80;;
22603;SDS011;11469;49.024;8.246;2024-01-16T07:54:10;32.13;;;13.75;;
22603;SDS011;11469;49.024;8.246;2024-01-16T07:56:35;29.02;;;12.13;;
22603;SDS011;11469;49.024;8.246;2024-01-16T07:59:01;31.83;;;13.55;;
22603;SDS011;11469;49.024;8.246;2024-01-16T08:01:27;33.05;;;14.93;;
22603;SDS011;11469;49.024;8.246;2024-01-16T08:03:57;30.33;;;13.75;;
22603;SDS011;11469;49.024;8.246;2024-01-16T08:06:23;33.05;;;14.05;;
22603;SDS011;11469;49.024;8.246;2024-01-16T08:08:49;29.50;;;13.70;;
22603;SDS011;11469;49.024;8.246;2024-01-16T08:11:15;31.70;;;15.07;;
22603;SDS011;11469;49.024;8.246;2024-01-16T08:13:41;32.10;;;13.73;;
22603;SDS011;11469;49.024;8.246;2024-01-16T08:16:07;32.60;;;14.50;;
22603;SDS011;11469;49.024;8.246;2024-01-16T08:18:33;29.55;;;14.20;;
22603;SDS011;11469;49.024;8.246;2024-01-16T08:20:59;31.73;;;14.30;;
22603;SDS011;11469;49.024;8.246;2024-01-16T08:23:24;31.70;;;13.40;;
22603;SDS011;11469;49.024;8.246;2024-01-16T08:25:49;33.40;;;14.50;;
22603;SDS011;11469;49.024;8.246;2024-01-16T08:28:16;34.88;;;13.68;;
22603;SDS011;11469;49.024;8.246;2024-01-16T08:30:45;37.88;;;15.07;;
22603;SDS011;11469;49.024;8.246;2024-01-16T08:33:11;35.78;;;15.30;;
22603;SDS011;11469;49.024;8.246;2024-01-16T08:35:37;30.88;;;13.65;;
22603;SDS011;11469;49.024;8.246;2024-01-16T08:38:03;34.63;;;14.15;;
22603;SDS011;11469;49.024;8.246;2024-01-16T08:40:29;34.28;;;14.25;;
22603;SDS011;11469;49.024;8.246;2024-01-16T08:42:54;37.28;;;15.27;;
22603;SDS011;11469;49.024;8.246;2024-01-16T08:45:20;31.27;;;14.75;;
22603;SDS011;11469;49.024;8.246;2024-01-16T08:47:46;39.80;;;15.77;;
22603;SDS011;11469;49.024;8.246;2024-01-16T08:50:12;31.42;;;15.20;;
22603;SDS011;11469;49.024;8.246;2024-01-16T08:52:37;35.67;;;15.57;;
22603;SDS011;11469;49.024;8.246;2024-01-16T08:55:03;38.50;;;15.90;;
22603;SDS011;11469;49.024;8.246;2024-01-16T08:57:29;38.70;;;16.27;;
22603;SDS011;11469;49.024;8.246;2024-01-16T08:59:54;32.78;;;15.10;;
22603;SDS011;11469;49.024;8.246;2024-01-16T09:02:19;39.05;;;15.40;;
22603;SDS011;11469;49.024;8.246;2024-01-16T09:04:45;35.15;;;15.90;;
22603;SDS011;11469;49.024;8.246;2024-01-16T09:07:12;34.58;;;16.17;;
22603;SDS011;11469;49.024;8.246;2024-01-16T09:09:40;35.08;;;14.95;;
22603;SDS011;11469;49.024;8.246;2024-01-16T09:12:07;36.28;;;16.10;;
22603;SDS011;11469;49.024;8.246;2024-01-16T09:14:33;38.70;;;16.17;;
22603;SDS011;11469;49.024;8.246;2024-01-16T09:16:59;42.15;;;16.90;;
22603;SDS011;11469;49.024;8.246;2024-01-16T09:19:24;41.65;;;16.20;;
22603;SDS011;11469;49.024;8.246;2024-01-16T09:21:49;37.47;;;15.98;;
22603;SDS011;11469;49.024;8.246;2024-01-16T09:24:15;36.10;;;15.88;;
22603;SDS011;11469;49.024;8.246;2024-01-16T09:26:40;40.63;;;16.67;;
22603;SDS011;11469;49.024;8.246;2024-01-16T09:29:07;43.47;;;19.20;;
22603;SDS011;11469;49.024;8.246;2024-01-16T09:31:33;37.83;;;15.57;;
22603;SDS011;11469;49.024;8.246;2024-01-16T09:34:00;33.17;;;14.15;;
22603;SDS011;11469;49.024;8.246;2024-01-16T09:36:26;33.47;;;14.68;;
22603;SDS011;11469;49.024;8.246;2024-01-16T09:38:51;33.45;;;13.68;;
22603;SDS011;11469;49.024;8.246;2024-01-16T09:41:17;28.75;;;13.63;;
22603;SDS011;11469;49.024;8.246;2024-01-16T09:43:42;30.95;;;12.52;;
22603;SDS011;11469;49.024;8.246;2024-01-16T09:46:09;33.47;;;13.23;;
22603;SDS011;11469;49.024;8.246;2024-01-16T09:48:36;41.97;;;15.18;;
22603;SDS011;11469;49.024;8.246;2024-01-16T09:51:01;26.33;;;11.90;;
22603;SDS011;11469;49.024;8.246;2024-01-16T09:53:28;30.40;;;12.85;;
22603;SDS011;11469;49.024;8.246;2024-01-16T09:55:54;35.25;;;13.10;;
22603;SDS011;11469;49.024;8.246;2024-01-16T09:58:25;31.52;;;12.93;;
22603;SDS011;11469;49.024;8.246;2024-01-16T10:00:52;32.05;;;13.45;;
22603;SDS011;11469;49.024;8.246;2024-01-16T10:03:17;32.53;;;13.02;;
22603;SDS011;11469;49.024;8.246;2024-01-16T10:05:45;31.40;;;12.55;;
22603;SDS011;11469;49.024;8.246;2024-01-16T10:08:12;32.67;;;12.55;;
22603;SDS011;11469;49.024;8.246;2024-01-16T10:10:38;35.72;;;13.95;;
22603;SDS011;11469;49.024;8.246;2024-01-16T10:13:04;34.78;;;14.45;;
22603;SDS011;11469;49.024;8.246;2024-01-16T10:15:31;31.25;;;14.30;;
22603;SDS011;11469;49.024;8.246;2024-01-16T10:17:56;33.63;;;14.43;;
22603;SDS011;11469;49.024;8.246;2024-01-16T10:20:31;35.28;;;13.80;;
22603;SDS011;11469;49.024;8.246;2024-01-16T10:22:57;36.33;;;15.85;;
22603;SDS011;11469;49.024;8.246;2024-01-16T10:25:23;29.30;;;13.60;;
22603;SDS011;11469;49.024;8.246;2024-01-16T10:27:49;30.20;;;12.52;;
22603;SDS011;11469;49.024;8.246;2024-01-16T10:30:28;32.97;;;13.38;;
22603;SDS011;11469;49.024;8.246;2024-01-16T10:32:53;26.77;;;12.70;;
22603;SDS011;11469;49.024;8.246;2024-01-16T10:35:18;33.67;;;12.95;;
22603;SDS011;11469;49.024;8.246;2024-01-16T10:40:14;25.90;;;11.75;;
22603;SDS011;11469;49.024;8.246;2024-01-16T10:43:03;30.40;;;12.40;;
22603;SDS011;11469;49.024;8.246;2024-01-16T10:45:29;29.98;;;12.25;;
22603;SDS011;11469;49.024;8.246;2024-01-16T10:48:03;28.27;;;13.00;;
22603;SDS011;11469;49.024;8.246;2024-01-16T10:50:33;23.92;;;10.88;;
22603;SDS011;11469;49.024;8.246;2024-01-16T10:53:00;29.42;;;13.00;;
22603;SDS011;11469;49.024;8.246;2024-01-16T10:55:29;28.30;;;10.70;;
22603;SDS011;11469;49.024;8.246;2024-01-16T10:57:57;27.75;;;10.90;;
22603;SDS011;11469;49.024;8.246;2024-01-16T11:00:25;24.77;;;11.32;;
22603;SDS011;11469;49.024;8.246;2024-01-16T11:03:05;25.25;;;10.65;;
22603;SDS011;11469;49.024;8.246;2024-01-16T11:05:32;25.60;;;11.25;;
22603;SDS011;11469;49.024;8.246;2024-01-16T11:07:59;25.98;;;11.07;;
22603;SDS011;11469;49.024;8.246;2024-01-16T11:10:29;29.17;;;12.00;;
22603;SDS011;11469;49.024;8.246;2024-01-16T11:12:56;25.63;;;10.52;;
22603;SDS011;11469;49.024;8.246;2024-01-16T11:15:25;37.30;;;12.15;;
22603;SDS011;11469;49.024;8.246;2024-01-16T11:17:53;22.95;;;10.93;;
22603;SDS011;11469;49.024;8.246;2024-01-16T11:20:20;25.95;;;11.82;;
22603;SDS011;11469;49.024;8.246;2024-01-16T11:22:46;24.48;;;10.82;;
22603;SDS011;11469;49.024;8.246;2024-01-16T11:25:14;28.67;;;11.85;;
22603;SDS011;11469;49.024;8.246;2024-01-16T11:27:41;26.85;;;11.45;;
22603;SDS011;11469;49.024;8.246;2024-01-16T11:30:08;24.67;;;10.23;;
22603;SDS011;11469;49.024;8.246;2024-01-16T11:32:42;20.33;;;9.10;;
22603;SDS011;11469;49.024;8.246;2024-01-16T11:35:07;19.65;;;9.02;;
22603;SDS011;11469;49.024;8.246;2024-01-16T11:37:33;19.38;;;8.93;;
22603;SDS011;11469;49.024;8.246;2024-01-16T11:42:49;19.02;;;8.10;;
22603;SDS011;11469;49.024;8.246;2024-01-16T11:45:49;19.45;;;8.35;;
22603;SDS011;11469;49.024;8.246;2024-01-16T11:50:35;21.65;;;8.90;;
22603;SDS011;11469;49.024;8.246;2024-01-16T11:53:01;17.40;;;8.10;;
22603;SDS011;11469;49.024;8.246;2024-01-16T11:55:31;23.13;;;10.27;;
22603;SDS011;11469;49.024;8.246;2024-01-16T12:01:00;20.17;;;9.35;;
22603;SDS011;11469;49.024;8.246;2024-01-16T12:03:26;19.42;;;8.40;;
22603;SDS011;11469;49.024;8.246;2024-01-16T12:05:55;21.15;;;9.63;;
22603;SDS011;11469;49.024;8.246;2024-01-16T12:08:21;24.05;;;9.75;;
22603;SDS011;11469;49.024;8.246;2024-01-16T12:10:47;24.02;;;7.80;;
22603;SDS011;11469;49.024;8.246;2024-01-16T12:13:15;16.90;;;7.57;;
22603;SDS011;11469;49.024;8.246;2024-01-16T12:15:41;23.83;;;7.75;;
22603;SDS011;11469;49.024;8.246;2024-01-16T12:18:07;20.55;;;7.63;;
22603;SDS011;11469;49.024;8.246;2024-01-16T12:20:34;15.30;;;6.75;;
22603;SDS011;11469;49.024;8.246;2024-01-16T12:23:00;17.30;;;7.70;;
22603;SDS011;11469;49.024;8.246;2024-01-16T12:25:31;23.30;;;8.25;;
22603;SDS011;11469;49.024;8.246;2024-01-16T12:27:58;20.52;;;7.57;;
22603;SDS011;11469;49.024;8.246;2024-01-16T12:30:35;19.63;;;7.05;;
22603;SDS011;11469;49.024;8.246;2024-01-16T12:35:40;15.60;;;6.55;;
22603;SDS011;11469;49.024;8.246;2024-01-16T12:38:06;16.05;;;5.88;;
22603;SDS011;11469;49.024;8.246;2024-01-16T12:40:36;22.70;;;6.40;;
22603;SDS011;11469;49.024;8.246;2024-01-16T12:43:05;13.68;;;5.28;;
22603;SDS011;11469;49.024;8.246;2024-01-16T12:45:32;16.38;;;5.70;;
22603;SDS011;11469;49.024;8.246;2024-01-16T12:47:59;21.33;;;7.72;;
22603;SDS011;11469;49.024;8.246;2024-01-16T12:50:26;19.08;;;8.90;;
22603;SDS011;11469;49.024;8.246;2024-01-16T12:53:10;26.05;;;10.13;;
22603;SDS011;11469;49.024;8.246;2024-01-16T12:55:40;26.65;;;8.73;;
22603;SDS011;11469;49.024;8.246;2024-01-16T12:58:15;27.98;;;8.85;;
22603;SDS011;11469;49.024;8.246;2024-01-16T13:00:45;25.83;;;8.43;;
22603;SDS011;11469;49.024;8.246;2024-01-16T13:03:15;15.02;;;5.25;;
22603;SDS011;11469;49.024;8.246;2024-01-16T13:05:56;25.52;;;7.10;;
22603;SDS011;11469;49.024;8.246;2024-01-16T13:08:23;18.45;;;7.47;;
22603;SDS011;11469;49.024;8.246;2024-01-16T13:11:06;28.50;;;9.75;;
22603;SDS011;11469;49.024;8.246;2024-01-16T13:13:32;21.60;;;7.30;;
22603;SDS011;11469;49.024;8.246;2024-01-16T13:15:59;19.05;;;7.85;;
22603;SDS011;11469;49.024;8.246;2024-01-16T13:18:28;21.70;;;7.57;;
22603;SDS011;11469;49.024;8.246;2024-01-16T13:20:56;19.67;;;7.00;;
22603;SDS011;11469;49.024;8.246;2024-01-16T13:23:22;22.15;;;8.50;;
22603;SDS011;11469;49.024;8.246;2024-01-16T13:25:50;18.17;;;7.78;;
22603;SDS011;11469;49.024;8.246;2024-01-16T13:28:16;18.27;;;7.60;;
22603;SDS011;11469;49.024;8.246;2024-01-16T13:30:42;19.63;;;6.18;;
22603;SDS011;11469;49.024;8.246;2024-01-16T13:33:08;19.15;;;7.03;;
22603;SDS011;11469;49.024;8.246;2024-01-16T13:35:35;15.85;;;7.13;;
22603;SDS011;11469;49.024;8.246;2024-01-16T13:38:02;18.65;;;6.30;;
22603;SDS011;11469;49.024;8.246;2024-01-16T13:40:29;19.98;;;6.90;;
22603;SDS011;11469;49.024;8.246;2024-01-16T13:42:54;21.38;;;6.55;;
22603;SDS011;11469;49.024;8.246;2024-01-16T13:45:20;16.65;;;6.50;;
22603;SDS011;11469;49.024;8.246;2024-01-16T13:47:45;13.07;;;5.35;;
22603;SDS011;11469;49.024;8.246;2024-01-16T13:50:11;26.30;;;8.00;;
22603;SDS011;11469;49.024;8.246;2024-01-16T13:52:37;15.27;;;6.68;;
22603;SDS011;11469;49.024;8.246;2024-01-16T13:55:04;14.98;;;5.40;;
22603;SDS011;11469;49.024;8.246;2024-01-16T13:57:33;14.13;;;5.28;;
22603;SDS011;11469;49.024;8.246;2024-01-16T14:00:02;15.75;;;5.30;;
22603;SDS011;11469;49.024;8.246;2024-01-16T14:02:28;11.32;;;4.15;;
22603;SDS011;11469;49.024;8.246;2024-01-16T14:04:53;14.15;;;5.15;;
22603;SDS011;11469;49.024;8.246;2024-01-16T14:07:19;13.18;;;4.47;;
22603;SDS011;11469;49.024;8.246;2024-01-16T14:09:44;15.10;;;4.43;;
22603;SDS011;11469;49.024;8.246;2024-01-16T14:12:10;15.57;;;4.88;;
22603;SDS011;11469;49.024;8.246;2024-01-16T14:14:36;9.63;;;4.10;;
22603;SDS011;11469;49.024;8.246;2024-01-16T14:17:03;14.63;;;4.05;;
22603;SDS011;11469;49.024;8.246;2024-01-16T14:19:28;12.48;;;4.75;;
22603;SDS011;11469;49.024;8.246;2024-01-16T14:21:55;7.95;;;2.72;;
22603;SDS011;11469;49.024;8.246;2024-01-16T14:24:21;8.85;;;3.47;;
22603;SDS011;11469;49.024;8.246;2024-01-16T14:26:46;13.57;;;4.30;;
22603;SDS011;11469;49.024;8.246;2024-01-16T14:29:12;8.90;;;3.63;;
22603;SDS011;11469;49.024;8.246;2024-01-16T14:31:38;10.63;;;3.45;;
22603;SDS011;11469;49.024;8.246;2024-01-16T14:34:03;15.73;;;3.70;;
22603;SDS011;11469;49.024;8.246;2024-01-16T14:36:29;14.18;;;4.25;;